sensor_id;sensor_type;location;lat;lon;timestamp;P1;durP1;ratioP1;P2;durP2;ratioP2
33104;SDS011;19476;51.448;6.674;2023-04-25T00:01:44;4.43;;;2.10;;
33104;SDS011;19476;51.448;6.674;2023-04-25T00:04:10;7.53;;;1.85;;
33104;SDS011;19476;51.448;6.674;2023-04-25T00:06:36;6.05;;;1.73;;
33104;SDS011;19476;51.448;6.674;2023-04-25T00:09:04;4.72;;;1.65;;
33104;SDS011;19476;51.448;6.674;2023-04-25T00:11:35;5.05;;;1.73;;
33104;SDS011;19476;51.448;6.674;2023-04-25T00:14:02;9.18;;;2.13;;
33104;SDS011;19476;51.448;6.674;2023-04-25T00:16:28;4.07;;;1.80;;
33104;SDS011;19476;51.448;6.674;2023-04-25T00:18:58;5.68;;;2.20;;
33104;SDS011;19476;51.448;6.674;2023-04-25T00:21:24;7.60;;;2.38;;
33104;SDS011;19476;51.448;6.674;2023-04-25T00:23:52;4.68;;;1.80;;
33104;SDS011;19476;51.448;6.674;2023-04-25T00:26:18;5.68;;;2.33;;
33104;SDS011;19476;51.448;6.674;2023-04-25T00:28:45;7.15;;;1.88;;
33104;SDS011;19476;51.448;6.674;2023-04-25T00:31:12;6.70;;;2.30;;
33104;SDS011;19476;51.448;6.674;2023-04-25T00:33:37;6.53;;;1.98;;
33104;SDS011;19476;51.448;6.674;2023-04-25T00:36:03;5.05;;;2.00;;
33104;SDS011;19476;51.448;6.674;2023-04-25T00:38:29;4.68;;;1.70;;
33104;SDS011;19476;51.448;6.674;2023-04-25T00:40:55;4.28;;;1.90;;
33104;SDS011;19476;51.448;6.674;2023-04-25T00:43:22;7.32;;;2.05;;
33104;SDS011;19476;51.448;6.674;2023-04-25T00:45:52;7.57;;;2.08;;
33104;SDS011;19476;51.448;6.674;2023-04-25T00:48:18;6.80;;;2.08;;
33104;SDS011;19476;51.448;6.674;2023-04-25T00:50:49;7.18;;;2.58;;
33104;SDS011;19476;51.448;6.674;2023-04-25T00:53:19;6.18;;;2.28;;
33104;SDS011;19476;51.448;6.674;2023-04-25T00:55:45;4.43;;;1.83;;
33104;SDS011;19476;51.448;6.674;2023-04-25T00:58:12;8.30;;;2.65;;
33104;SDS011;19476;51.448;6.674;2023-04-25T01:00:37;8.55;;;2.65;;
33104;SDS011;19476;51.448;6.674;2023-04-25T01:03:05;8.98;;;2.60;;
33104;SDS011;19476;51.448;6.674;2023-04-25T01:05:31;4.15;;;1.95;;
33104;SDS011;19476;51.448;6.674;2023-04-25T01:07:57;5.72;;;1.90;;
33104;SDS011;19476;51.448;6.674;2023-04-25T01:10:23;5.15;;;1.95;;
33104;SDS011;19476;51.448;6.674;2023-04-25T01:12:49;5.82;;;2.22;;
33104;SDS011;19476;51.448;6.674;2023-04-25T01:15:15;5.50;;;2.13;;
33104;SDS011;19476;51.448;6.674;2023-04-25T01:17:41;8.15;;;2.55;;
33104;SDS011;19476;51.448;6.674;2023-04-25T01:20:09;5.00;;;2.15;;
33104;SDS011;19476;51.448;6.674;2023-04-25T01:22:36;6.25;;;2.35;;
33104;SDS011;19476;51.448;6.674;2023-04-25T01:25:03;6.95;;;2.22;;
33104;SDS011;19476;51.448;6.674;2023-04-25T01:27:30;6.60;;;2.42;;
33104;SDS011;19476;51.448;6.674;2023-04-25T01:29:56;4.90;;;2.10;;
33104;SDS011;19476;51.448;6.674;2023-04-25T01:32:23;5.57;;;2.03;;
33104;SDS011;19476;51.448;6.674;2023-04-25T01:34:49;8.02;;;2.28;;
33104;SDS011;19476;51.448;6.674;2023-04-25T01:37:15;6.55;;;1.88;;
33104;SDS011;19476;51.448;6.674;2023-04-25T01:39:42;6.95;;;1.98;;
33104;SDS011;19476;51.448;6.674;2023-04-25T01:42:08;5.82;;;2.50;;
33104;SDS011;19476;51.448;6.674;2023-04-25T01:44:34;6.28;;;1.92;;
33104;SDS011;19476;51.448;6.674;2023-04-25T01:47:00;4.30;;;1.90;;
33104;SDS011;19476;51.448;6.674;2023-04-25T01:49:25;6.55;;;1.95;;
33104;SDS011;19476;51.448;6.674;2023-04-25T01:51:51;6.25;;;1.92;;
33104;SDS011;19476;51.448;6.674;2023-04-25T01:54:18;5.68;;;2.10;;
33104;SDS011;19476;51.448;6.674;2023-04-25T01:56:49;4.28;;;1.60;;
33104;SDS011;19476;51.448;6.674;2023-04-25T01:59:16;6.07;;;1.92;;
33104;SDS011;19476;51.448;6.674;2023-04-25T02:01:43;4.63;;;1.88;;
33104;SDS011;19476;51.448;6.674;2023-04-25T02:04:09;5.78;;;2.10;;
33104;SDS011;19476;51.448;6.674;2023-04-25T02:06:35;6.20;;;1.73;;
33104;SDS011;19476;51.448;6.674;2023-04-25T02:09:00;4.35;;;2.05;;
33104;SDS011;19476;51.448;6.674;2023-04-25T02:11:26;7.00;;;1.98;;
33104;SDS011;19476;51.448;6.674;2023-04-25T02:13:52;5.78;;;2.20;;
33104;SDS011;19476;51.448;6.674;2023-04-25T02:16:17;5.55;;;2.10;;
33104;SDS011;19476;51.448;6.674;2023-04-25T02:18:43;8.18;;;2.25;;
33104;SDS011;19476;51.448;6.674;2023-04-25T02:21:10;4.93;;;1.58;;
33104;SDS011;19476;51.448;6.674;2023-04-25T02:23:36;4.90;;;1.88;;
33104;SDS011;19476;51.448;6.674;2023-04-25T02:26:02;7.70;;;1.90;;
33104;SDS011;19476;51.448;6.674;2023-04-25T02:28:28;7.25;;;1.85;;
33104;SDS011;19476;51.448;6.674;2023-04-25T02:30:54;8.82;;;1.95;;
33104;SDS011;19476;51.448;6.674;2023-04-25T02:33:20;6.97;;;2.13;;
33104;SDS011;19476;51.448;6.674;2023-04-25T02:35:46;5.32;;;1.40;;
33104;SDS011;19476;51.448;6.674;2023-04-25T02:38:12;5.05;;;1.70;;
33104;SDS011;19476;51.448;6.674;2023-04-25T02:40:38;6.35;;;2.08;;
33104;SDS011;19476;51.448;6.674;2023-04-25T02:43:03;6.53;;;1.67;;
33104;SDS011;19476;51.448;6.674;2023-04-25T02:45:29;6.13;;;1.75;;
33104;SDS011;19476;51.448;6.674;2023-04-25T02:47:55;4.65;;;1.73;;
33104;SDS011;19476;51.448;6.674;2023-04-25T02:50:21;4.57;;;1.55;;
33104;SDS011;19476;51.448;6.674;2023-04-25T02:52:46;5.20;;;1.70;;
33104;SDS011;19476;51.448;6.674;2023-04-25T02:55:12;4.00;;;1.48;;
33104;SDS011;19476;51.448;6.674;2023-04-25T02:57:39;6.72;;;1.95;;
33104;SDS011;19476;51.448;6.674;2023-04-25T03:00:04;6.07;;;1.80;;
33104;SDS011;19476;51.448;6.674;2023-04-25T03:02:31;4.80;;;1.90;;
33104;SDS011;19476;51.448;6.674;2023-04-25T03:04:56;4.93;;;1.60;;
33104;SDS011;19476;51.448;6.674;2023-04-25T03:07:23;9.10;;;2.47;;
33104;SDS011;19476;51.448;6.674;2023-04-25T03:09:49;6.22;;;1.85;;
33104;SDS011;19476;51.448;6.674;2023-04-25T03:12:15;7.63;;;1.98;;
33104;SDS011;19476;51.448;6.674;2023-04-25T03:14:40;5.72;;;2.05;;
33104;SDS011;19476;51.448;6.674;2023-04-25T03:17:06;4.28;;;1.52;;
33104;SDS011;19476;51.448;6.674;2023-04-25T03:19:32;6.82;;;2.08;;
33104;SDS011;19476;51.448;6.674;2023-04-25T03:21:58;5.82;;;1.80;;
33104;SDS011;19476;51.448;6.674;2023-04-25T03:24:23;5.57;;;1.80;;
33104;SDS011;19476;51.448;6.674;2023-04-25T03:26:49;8.07;;;2.75;;
33104;SDS011;19476;51.448;6.674;2023-04-25T03:29:15;6.60;;;2.20;;
33104;SDS011;19476;51.448;6.674;2023-04-25T03:31:40;4.47;;;1.20;;
33104;SDS011;19476;51.448;6.674;2023-04-25T03:34:06;3.53;;;1.52;;
33104;SDS011;19476;51.448;6.674;2023-04-25T03:36:32;6.05;;;2.10;;
33104;SDS011;19476;51.448;6.674;2023-04-25T03:38:58;7.72;;;1.50;;
33104;SDS011;19476;51.448;6.674;2023-04-25T03:41:24;10.05;;;2.10;;
33104;SDS011;19476;51.448;6.674;2023-04-25T03:43:50;4.70;;;1.75;;
33104;SDS011;19476;51.448;6.674;2023-04-25T03:46:16;4.82;;;1.67;;
33104;SDS011;19476;51.448;6.674;2023-04-25T03:48:41;4.78;;;1.52;;
33104;SDS011;19476;51.448;6.674;2023-04-25T03:51:07;6.20;;;1.98;;
33104;SDS011;19476;51.448;6.674;2023-04-25T03:53:33;6.65;;;1.88;;
33104;SDS011;19476;51.448;6.674;2023-04-25T03:55:58;8.00;;;2.17;;
33104;SDS011;19476;51.448;6.674;2023-04-25T03:58:24;6.05;;;2.05;;
33104;SDS011;19476;51.448;6.674;2023-04-25T04:00:50;5.97;;;2.03;;
33104;SDS011;19476;51.448;6.674;2023-04-25T04:03:16;5.75;;;2.35;;
33104;SDS011;19476;51.448;6.674;2023-04-25T04:05:41;4.68;;;2.10;;
33104;SDS011;19476;51.448;6.674;2023-04-25T04:08:07;6.28;;;1.98;;
33104;SDS011;19476;51.448;6.674;2023-04-25T04:10:33;10.50;;;2.70;;
33104;SDS011;19476;51.448;6.674;2023-04-25T04:13:00;6.28;;;2.00;;
33104;SDS011;19476;51.448;6.674;2023-04-25T04:15:25;6.20;;;1.92;;
33104;SDS011;19476;51.448;6.674;2023-04-25T04:17:51;5.35;;;1.55;;
33104;SDS011;19476;51.448;6.674;2023-04-25T04:20:17;6.28;;;1.80;;
33104;SDS011;19476;51.448;6.674;2023-04-25T04:22:43;6.00;;;2.00;;
33104;SDS011;19476;51.448;6.674;2023-04-25T04:25:08;8.77;;;2.63;;
33104;SDS011;19476;51.448;6.674;2023-04-25T04:27:36;7.00;;;1.95;;
33104;SDS011;19476;51.448;6.674;2023-04-25T04:30:02;7.72;;;2.17;;
33104;SDS011;19476;51.448;6.674;2023-04-25T04:32:29;5.28;;;1.90;;
33104;SDS011;19476;51.448;6.674;2023-04-25T04:34:55;8.60;;;2.25;;
33104;SDS011;19476;51.448;6.674;2023-04-25T04:37:21;8.07;;;2.28;;
33104;SDS011;19476;51.448;6.674;2023-04-25T04:39:47;6.55;;;2.17;;
33104;SDS011;19476;51.448;6.674;2023-04-25T04:42:13;4.22;;;1.35;;
33104;SDS011;19476;51.448;6.674;2023-04-25T04:44:39;7.50;;;2.15;;
33104;SDS011;19476;51.448;6.674;2023-04-25T04:47:04;6.43;;;1.88;;
33104;SDS011;19476;51.448;6.674;2023-04-25T04:49:31;7.68;;;2.10;;
33104;SDS011;19476;51.448;6.674;2023-04-25T04:51:57;5.38;;;1.73;;
33104;SDS011;19476;51.448;6.674;2023-04-25T04:54:25;5.65;;;2.00;;
33104;SDS011;19476;51.448;6.674;2023-04-25T04:56:50;6.15;;;1.67;;
33104;SDS011;19476;51.448;6.674;2023-04-25T04:59:17;7.40;;;2.00;;
33104;SDS011;19476;51.448;6.674;2023-04-25T05:01:43;5.93;;;1.92;;
33104;SDS011;19476;51.448;6.674;2023-04-25T05:04:09;4.40;;;1.58;;
33104;SDS011;19476;51.448;6.674;2023-04-25T05:06:34;5.00;;;1.50;;
33104;SDS011;19476;51.448;6.674;2023-04-25T05:09:01;8.43;;;2.40;;
33104;SDS011;19476;51.448;6.674;2023-04-25T05:11:27;8.80;;;2.10;;
33104;SDS011;19476;51.448;6.674;2023-04-25T05:13:53;5.07;;;1.77;;
33104;SDS011;19476;51.448;6.674;2023-04-25T05:16:19;3.97;;;1.63;;
33104;SDS011;19476;51.448;6.674;2023-04-25T05:18:46;6.05;;;1.50;;
33104;SDS011;19476;51.448;6.674;2023-04-25T05:21:12;5.32;;;1.77;;
33104;SDS011;19476;51.448;6.674;2023-04-25T05:23:37;6.65;;;2.10;;
33104;SDS011;19476;51.448;6.674;2023-04-25T05:26:03;7.53;;;2.00;;
33104;SDS011;19476;51.448;6.674;2023-04-25T05:28:29;4.35;;;1.80;;
33104;SDS011;19476;51.448;6.674;2023-04-25T05:30:55;7.35;;;2.30;;
33104;SDS011;19476;51.448;6.674;2023-04-25T05:33:21;6.60;;;1.98;;
33104;SDS011;19476;51.448;6.674;2023-04-25T05:35:47;3.22;;;1.50;;
33104;SDS011;19476;51.448;6.674;2023-04-25T05:38:13;7.70;;;1.63;;
33104;SDS011;19476;51.448;6.674;2023-04-25T05:40:38;6.43;;;2.03;;
33104;SDS011;19476;51.448;6.674;2023-04-25T05:43:04;5.20;;;1.92;;
33104;SDS011;19476;51.448;6.674;2023-04-25T05:45:30;5.32;;;1.75;;
33104;SDS011;19476;51.448;6.674;2023-04-25T05:47:56;6.47;;;1.83;;
33104;SDS011;19476;51.448;6.674;2023-04-25T05:50:22;7.20;;;2.28;;
33104;SDS011;19476;51.448;6.674;2023-04-25T05:52:47;9.93;;;2.50;;
33104;SDS011;19476;51.448;6.674;2023-04-25T05:55:13;6.38;;;1.95;;
33104;SDS011;19476;51.448;6.674;2023-04-25T05:57:39;8.10;;;2.40;;
33104;SDS011;19476;51.448;6.674;2023-04-25T06:00:07;3.85;;;1.80;;
33104;SDS011;19476;51.448;6.674;2023-04-25T06:02:37;5.07;;;2.17;;
33104;SDS011;19476;51.448;6.674;2023-04-25T06:05:03;5.25;;;1.75;;
33104;SDS011;19476;51.448;6.674;2023-04-25T06:07:29;7.90;;;2.08;;
33104;SDS011;19476;51.448;6.674;2023-04-25T06:09:55;6.93;;;1.88;;
33104;SDS011;19476;51.448;6.674;2023-04-25T06:12:21;5.75;;;2.10;;
33104;SDS011;19476;51.448;6.674;2023-04-25T06:14:47;6.28;;;2.58;;
33104;SDS011;19476;51.448;6.674;2023-04-25T06:17:13;6.70;;;1.92;;
33104;SDS011;19476;51.448;6.674;2023-04-25T06:19:38;7.80;;;2.05;;
33104;SDS011;19476;51.448;6.674;2023-04-25T06:22:04;6.75;;;1.88;;
33104;SDS011;19476;51.448;6.674;2023-04-25T06:24:32;6.13;;;1.95;;
33104;SDS011;19476;51.448;6.674;2023-04-25T06:26:57;6.05;;;2.05;;
33104;SDS011;19476;51.448;6.674;2023-04-25T06:29:23;10.88;;;2.35;;
33104;SDS011;19476;51.448;6.674;2023-04-25T06:31:49;6.20;;;1.95;;
33104;SDS011;19476;51.448;6.674;2023-04-25T06:34:15;5.30;;;1.67;;
33104;SDS011;19476;51.448;6.674;2023-04-25T06:36:41;4.35;;;1.73;;
33104;SDS011;19476;51.448;6.674;2023-04-25T06:39:07;6.63;;;2.05;;
33104;SDS011;19476;51.448;6.674;2023-04-25T06:41:33;5.03;;;1.63;;
33104;SDS011;19476;51.448;6.674;2023-04-25T06:44:00;7.70;;;2.17;;
33104;SDS011;19476;51.448;6.674;2023-04-25T06:46:26;6.32;;;1.88;;
33104;SDS011;19476;51.448;6.674;2023-04-25T06:48:52;4.65;;;1.60;;
33104;SDS011;19476;51.448;6.674;2023-04-25T06:51:17;5.40;;;1.70;;
33104;SDS011;19476;51.448;6.674;2023-04-25T06:53:43;12.48;;;2.15;;
33104;SDS011;19476;51.448;6.674;2023-04-25T06:56:09;8.18;;;1.90;;
33104;SDS011;19476;51.448;6.674;2023-04-25T06:58:35;5.10;;;1.48;;
33104;SDS011;19476;51.448;6.674;2023-04-25T07:01:00;6.72;;;1.63;;
33104;SDS011;19476;51.448;6.674;2023-04-25T07:03:26;5.70;;;1.67;;
33104;SDS011;19476;51.448;6.674;2023-04-25T07:05:52;5.60;;;1.70;;
33104;SDS011;19476;51.448;6.674;2023-04-25T07:08:18;6.32;;;1.77;;
33104;SDS011;19476;51.448;6.674;2023-04-25T07:10:44;6.80;;;1.60;;
33104;SDS011;19476;51.448;6.674;2023-04-25T07:13:11;5.80;;;1.83;;
33104;SDS011;19476;51.448;6.674;2023-04-25T07:15:37;4.80;;;1.50;;
33104;SDS011;19476;51.448;6.674;2023-04-25T07:18:02;4.53;;;1.30;;
33104;SDS011;19476;51.448;6.674;2023-04-25T07:20:28;5.32;;;1.40;;
33104;SDS011;19476;51.448;6.674;2023-04-25T07:22:55;5.00;;;1.35;;
33104;SDS011;19476;51.448;6.674;2023-04-25T07:25:22;3.97;;;1.30;;
33104;SDS011;19476;51.448;6.674;2023-04-25T07:27:48;7.57;;;1.50;;
33104;SDS011;19476;51.448;6.674;2023-04-25T07:30:13;6.80;;;1.60;;
33104;SDS011;19476;51.448;6.674;2023-04-25T07:32:39;4.47;;;1.30;;
33104;SDS011;19476;51.448;6.674;2023-04-25T07:35:05;5.35;;;1.58;;
33104;SDS011;19476;51.448;6.674;2023-04-25T07:37:34;9.33;;;1.87;;
33104;SDS011;19476;51.448;6.674;2023-04-25T07:40:01;7.47;;;1.70;;
33104;SDS011;19476;51.448;6.674;2023-04-25T07:42:30;7.38;;;2.03;;
33104;SDS011;19476;51.448;6.674;2023-04-25T07:44:56;6.32;;;1.65;;
33104;SDS011;19476;51.448;6.674;2023-04-25T07:47:22;4.43;;;1.35;;
33104;SDS011;19476;51.448;6.674;2023-04-25T07:49:48;5.43;;;1.40;;
33104;SDS011;19476;51.448;6.674;2023-04-25T07:52:14;5.13;;;1.55;;
33104;SDS011;19476;51.448;6.674;2023-04-25T07:54:40;5.40;;;1.30;;
33104;SDS011;19476;51.448;6.674;2023-04-25T07:57:06;3.67;;;1.38;;
33104;SDS011;19476;51.448;6.674;2023-04-25T07:59:32;4.78;;;1.52;;
33104;SDS011;19476;51.448;6.674;2023-04-25T08:01:58;5.72;;;2.17;;
33104;SDS011;19476;51.448;6.674;2023-04-25T08:04:25;6.18;;;1.15;;
33104;SDS011;19476;51.448;6.674;2023-04-25T08:06:50;6.05;;;1.30;;
33104;SDS011;19476;51.448;6.674;2023-04-25T08:09:18;3.53;;;1.23;;
33104;SDS011;19476;51.448;6.674;2023-04-25T08:11:44;4.65;;;1.23;;
33104;SDS011;19476;51.448;6.674;2023-04-25T08:14:11;4.88;;;1.20;;
33104;SDS011;19476;51.448;6.674;2023-04-25T08:16:37;5.13;;;1.13;;
33104;SDS011;19476;51.448;6.674;2023-04-25T08:19:03;3.80;;;1.33;;
33104;SDS011;19476;51.448;6.674;2023-04-25T08:21:28;3.80;;;1.27;;
33104;SDS011;19476;51.448;6.674;2023-04-25T08:23:55;8.52;;;1.55;;
33104;SDS011;19476;51.448;6.674;2023-04-25T08:26:23;5.75;;;1.30;;
33104;SDS011;19476;51.448;6.674;2023-04-25T08:28:49;4.60;;;1.30;;
33104;SDS011;19476;51.448;6.674;2023-04-25T08:31:15;5.20;;;1.42;;
33104;SDS011;19476;51.448;6.674;2023-04-25T08:33:42;4.32;;;1.08;;
33104;SDS011;19476;51.448;6.674;2023-04-25T08:36:08;6.47;;;1.10;;
33104;SDS011;19476;51.448;6.674;2023-04-25T08:38:34;5.25;;;1.35;;
33104;SDS011;19476;51.448;6.674;2023-04-25T08:41:00;5.18;;;1.30;;
33104;SDS011;19476;51.448;6.674;2023-04-25T08:43:29;5.82;;;1.20;;
33104;SDS011;19476;51.448;6.674;2023-04-25T08:45:59;4.13;;;1.00;;
33104;SDS011;19476;51.448;6.674;2023-04-25T08:48:29;7.03;;;1.20;;
33104;SDS011;19476;51.448;6.674;2023-04-25T08:50:57;3.17;;;1.00;;
33104;SDS011;19476;51.448;6.674;2023-04-25T08:53:29;3.22;;;0.70;;
33104;SDS011;19476;51.448;6.674;2023-04-25T08:55:59;4.22;;;1.00;;
33104;SDS011;19476;51.448;6.674;2023-04-25T08:58:29;3.15;;;1.00;;
33104;SDS011;19476;51.448;6.674;2023-04-25T09:00:56;3.50;;;0.75;;
33104;SDS011;19476;51.448;6.674;2023-04-25T09:03:22;3.78;;;0.98;;
33104;SDS011;19476;51.448;6.674;2023-04-25T09:05:48;5.93;;;0.82;;
33104;SDS011;19476;51.448;6.674;2023-04-25T09:08:15;3.08;;;0.95;;
33104;SDS011;19476;51.448;6.674;2023-04-25T09:10:41;2.05;;;0.80;;
33104;SDS011;19476;51.448;6.674;2023-04-25T09:13:07;3.58;;;1.13;;
33104;SDS011;19476;51.448;6.674;2023-04-25T09:15:52;2.50;;;0.70;;
33104;SDS011;19476;51.448;6.674;2023-04-25T09:18:28;1.70;;;0.85;;
33104;SDS011;19476;51.448;6.674;2023-04-25T09:21:08;4.35;;;0.80;;
33104;SDS011;19476;51.448;6.674;2023-04-25T09:23:44;2.05;;;0.75;;
33104;SDS011;19476;51.448;6.674;2023-04-25T09:26:15;2.30;;;0.77;;
33104;SDS011;19476;51.448;6.674;2023-04-25T09:28:42;4.03;;;0.80;;
33104;SDS011;19476;51.448;6.674;2023-04-25T09:31:09;3.05;;;0.77;;
33104;SDS011;19476;51.448;6.674;2023-04-25T09:33:38;2.75;;;0.70;;
33104;SDS011;19476;51.448;6.674;2023-04-25T09:36:07;3.53;;;1.00;;
33104;SDS011;19476;51.448;6.674;2023-04-25T09:38:40;2.40;;;0.95;;
33104;SDS011;19476;51.448;6.674;2023-04-25T09:41:10;3.15;;;0.68;;
33104;SDS011;19476;51.448;6.674;2023-04-25T09:43:36;3.08;;;0.80;;
33104;SDS011;19476;51.448;6.674;2023-04-25T09:46:07;2.55;;;0.68;;
33104;SDS011;19476;51.448;6.674;2023-04-25T09:48:34;1.90;;;0.50;;
33104;SDS011;19476;51.448;6.674;2023-04-25T09:53:43;2.20;;;0.60;;
33104;SDS011;19476;51.448;6.674;2023-04-25T09:56:11;3.35;;;0.80;;
33104;SDS011;19476;51.448;6.674;2023-04-25T09:58:39;3.45;;;0.80;;
33104;SDS011;19476;51.448;6.674;2023-04-25T10:01:06;3.25;;;0.60;;
33104;SDS011;19476;51.448;6.674;2023-04-25T10:03:34;2.88;;;0.73;;
33104;SDS011;19476;51.448;6.674;2023-04-25T10:06:09;2.80;;;0.80;;
33104;SDS011;19476;51.448;6.674;2023-04-25T10:08:39;2.30;;;0.60;;
33104;SDS011;19476;51.448;6.674;2023-04-25T10:11:06;2.13;;;0.60;;
33104;SDS011;19476;51.448;6.674;2023-04-25T10:13:33;3.28;;;0.82;;
33104;SDS011;19476;51.448;6.674;2023-04-25T10:16:03;2.70;;;0.50;;
33104;SDS011;19476;51.448;6.674;2023-04-25T10:18:31;1.85;;;0.65;;
33104;SDS011;19476;51.448;6.674;2023-04-25T10:21:01;2.75;;;0.80;;
33104;SDS011;19476;51.448;6.674;2023-04-25T10:23:29;1.85;;;0.70;;
33104;SDS011;19476;51.448;6.674;2023-04-25T10:25:56;3.08;;;0.63;;
33104;SDS011;19476;51.448;6.674;2023-04-25T10:28:24;3.22;;;0.70;;
33104;SDS011;19476;51.448;6.674;2023-04-25T10:30:56;2.35;;;0.60;;
33104;SDS011;19476;51.448;6.674;2023-04-25T10:33:33;1.88;;;0.50;;
33104;SDS011;19476;51.448;6.674;2023-04-25T10:36:12;1.75;;;0.65;;
33104;SDS011;19476;51.448;6.674;2023-04-25T10:38:40;3.80;;;0.80;;
33104;SDS011;19476;51.448;6.674;2023-04-25T10:41:08;2.55;;;0.70;;
33104;SDS011;19476;51.448;6.674;2023-04-25T10:43:45;3.53;;;0.60;;
33104;SDS011;19476;51.448;6.674;2023-04-25T10:48:57;2.17;;;0.77;;
33104;SDS011;19476;51.448;6.674;2023-04-25T10:51:31;1.70;;;0.68;;
33104;SDS011;19476;51.448;6.674;2023-04-25T10:53:59;2.20;;;0.68;;
33104;SDS011;19476;51.448;6.674;2023-04-25T10:56:40;1.95;;;0.50;;
33104;SDS011;19476;51.448;6.674;2023-04-25T10:59:13;1.58;;;0.50;;
33104;SDS011;19476;51.448;6.674;2023-04-25T11:01:44;1.58;;;0.73;;
33104;SDS011;19476;51.448;6.674;2023-04-25T11:04:20;2.72;;;0.60;;
33104;SDS011;19476;51.448;6.674;2023-04-25T11:06:53;2.20;;;0.80;;
33104;SDS011;19476;51.448;6.674;2023-04-25T11:09:20;1.30;;;0.35;;
33104;SDS011;19476;51.448;6.674;2023-04-25T11:11:56;2.03;;;0.52;;
33104;SDS011;19476;51.448;6.674;2023-04-25T11:14:24;3.38;;;0.60;;
33104;SDS011;19476;51.448;6.674;2023-04-25T11:16:56;4.22;;;0.68;;
33104;SDS011;19476;51.448;6.674;2023-04-25T11:19:23;1.88;;;0.68;;
33104;SDS011;19476;51.448;6.674;2023-04-25T11:21:50;1.73;;;0.70;;
33104;SDS011;19476;51.448;6.674;2023-04-25T11:24:22;4.43;;;0.73;;
33104;SDS011;19476;51.448;6.674;2023-04-25T11:27:02;0.88;;;0.40;;
33104;SDS011;19476;51.448;6.674;2023-04-25T11:29:33;3.47;;;0.60;;
33104;SDS011;19476;51.448;6.674;2023-04-25T11:32:00;3.05;;;0.80;;
33104;SDS011;19476;51.448;6.674;2023-04-25T11:34:27;2.72;;;0.60;;
33104;SDS011;19476;51.448;6.674;2023-04-25T11:36:56;3.17;;;0.65;;
33104;SDS011;19476;51.448;6.674;2023-04-25T11:39:25;3.78;;;0.65;;
33104;SDS011;19476;51.448;6.674;2023-04-25T11:41:52;2.58;;;0.40;;
33104;SDS011;19476;51.448;6.674;2023-04-25T11:44:18;3.50;;;0.90;;
33104;SDS011;19476;51.448;6.674;2023-04-25T11:46:48;4.38;;;0.60;;
33104;SDS011;19476;51.448;6.674;2023-04-25T11:49:17;4.13;;;1.20;;
33104;SDS011;19476;51.448;6.674;2023-04-25T11:51:47;3.45;;;0.95;;
33104;SDS011;19476;51.448;6.674;2023-04-25T11:54:13;4.85;;;0.70;;
33104;SDS011;19476;51.448;6.674;2023-04-25T11:56:44;2.20;;;0.63;;
33104;SDS011;19476;51.448;6.674;2023-04-25T11:59:10;3.83;;;0.80;;
33104;SDS011;19476;51.448;6.674;2023-04-25T12:01:38;2.35;;;0.75;;
33104;SDS011;19476;51.448;6.674;2023-04-25T12:04:12;2.53;;;0.70;;
33104;SDS011;19476;51.448;6.674;2023-04-25T12:06:41;2.35;;;0.68;;
33104;SDS011;19476;51.448;6.674;2023-04-25T12:09:08;2.45;;;0.80;;
33104;SDS011;19476;51.448;6.674;2023-04-25T12:14:09;4.22;;;1.00;;
33104;SDS011;19476;51.448;6.674;2023-04-25T12:16:42;2.75;;;1.17;;
33104;SDS011;19476;51.448;6.674;2023-04-25T12:19:09;3.42;;;1.00;;
33104;SDS011;19476;51.448;6.674;2023-04-25T12:21:35;2.97;;;0.73;;
33104;SDS011;19476;51.448;6.674;2023-04-25T12:24:15;2.58;;;0.50;;
33104;SDS011;19476;51.448;6.674;2023-04-25T12:26:52;2.20;;;0.85;;
33104;SDS011;19476;51.448;6.674;2023-04-25T12:29:30;3.38;;;1.05;;
33104;SDS011;19476;51.448;6.674;2023-04-25T12:31:58;4.82;;;1.20;;
33104;SDS011;19476;51.448;6.674;2023-04-25T12:34:26;2.83;;;0.57;;
33104;SDS011;19476;51.448;6.674;2023-04-25T12:36:53;3.08;;;0.65;;
33104;SDS011;19476;51.448;6.674;2023-04-25T12:39:21;4.03;;;1.00;;
33104;SDS011;19476;51.448;6.674;2023-04-25T12:41:49;5.47;;;1.00;;
33104;SDS011;19476;51.448;6.674;2023-04-25T12:44:15;3.75;;;1.05;;
33104;SDS011;19476;51.448;6.674;2023-04-25T12:46:47;2.10;;;0.70;;
33104;SDS011;19476;51.448;6.674;2023-04-25T12:49:14;2.83;;;0.88;;
33104;SDS011;19476;51.448;6.674;2023-04-25T12:51:39;2.45;;;0.80;;
33104;SDS011;19476;51.448;6.674;2023-04-25T12:54:06;5.30;;;1.02;;
33104;SDS011;19476;51.448;6.674;2023-04-25T12:56:33;3.67;;;0.90;;
33104;SDS011;19476;51.448;6.674;2023-04-25T12:59:00;3.67;;;0.70;;
33104;SDS011;19476;51.448;6.674;2023-04-25T13:01:28;2.58;;;0.60;;
33104;SDS011;19476;51.448;6.674;2023-04-25T13:03:54;1.50;;;0.40;;
33104;SDS011;19476;51.448;6.674;2023-04-25T13:06:21;2.17;;;0.60;;
33104;SDS011;19476;51.448;6.674;2023-04-25T13:08:47;3.00;;;0.50;;
33104;SDS011;19476;51.448;6.674;2023-04-25T13:11:13;2.92;;;0.73;;
33104;SDS011;19476;51.448;6.674;2023-04-25T13:13:43;3.83;;;0.70;;
33104;SDS011;19476;51.448;6.674;2023-04-25T13:16:09;2.65;;;0.90;;
33104;SDS011;19476;51.448;6.674;2023-04-25T13:18:36;2.72;;;0.70;;
33104;SDS011;19476;51.448;6.674;2023-04-25T13:21:02;2.03;;;0.55;;
33104;SDS011;19476;51.448;6.674;2023-04-25T13:23:28;1.42;;;0.60;;
33104;SDS011;19476;51.448;6.674;2023-04-25T13:25:55;1.63;;;0.68;;
33104;SDS011;19476;51.448;6.674;2023-04-25T13:28:25;2.80;;;0.52;;
33104;SDS011;19476;51.448;6.674;2023-04-25T13:30:51;3.08;;;0.60;;
33104;SDS011;19476;51.448;6.674;2023-04-25T13:33:17;2.63;;;0.77;;
33104;SDS011;19476;51.448;6.674;2023-04-25T13:35:44;4.00;;;0.95;;
33104;SDS011;19476;51.448;6.674;2023-04-25T13:38:22;2.30;;;0.50;;
33104;SDS011;19476;51.448;6.674;2023-04-25T13:40:49;2.78;;;0.68;;
33104;SDS011;19476;51.448;6.674;2023-04-25T13:43:15;1.33;;;0.50;;
33104;SDS011;19476;51.448;6.674;2023-04-25T13:45:41;2.83;;;0.70;;
33104;SDS011;19476;51.448;6.674;2023-04-25T13:48:07;3.10;;;0.70;;
33104;SDS011;19476;51.448;6.674;2023-04-25T13:50:33;1.17;;;0.40;;
33104;SDS011;19476;51.448;6.674;2023-04-25T13:52:58;3.17;;;0.75;;
33104;SDS011;19476;51.448;6.674;2023-04-25T13:55:25;2.08;;;0.60;;
33104;SDS011;19476;51.448;6.674;2023-04-25T13:57:51;3.38;;;0.70;;
33104;SDS011;19476;51.448;6.674;2023-04-25T14:00:20;1.50;;;0.60;;
33104;SDS011;19476;51.448;6.674;2023-04-25T14:02:46;2.22;;;0.50;;
33104;SDS011;19476;51.448;6.674;2023-04-25T14:05:12;2.00;;;0.50;;
33104;SDS011;19476;51.448;6.674;2023-04-25T14:07:38;2.63;;;0.88;;
33104;SDS011;19476;51.448;6.674;2023-04-25T14:10:04;2.38;;;0.50;;
33104;SDS011;19476;51.448;6.674;2023-04-25T14:12:32;2.72;;;0.60;;
33104;SDS011;19476;51.448;6.674;2023-04-25T14:14:58;2.03;;;0.38;;
33104;SDS011;19476;51.448;6.674;2023-04-25T14:17:23;0.68;;;0.30;;
33104;SDS011;19476;51.448;6.674;2023-04-25T14:19:50;3.08;;;0.60;;
33104;SDS011;19476;51.448;6.674;2023-04-25T14:22:16;2.83;;;0.55;;
33104;SDS011;19476;51.448;6.674;2023-04-25T14:24:41;3.42;;;0.57;;
33104;SDS011;19476;51.448;6.674;2023-04-25T14:27:08;3.75;;;0.95;;
33104;SDS011;19476;51.448;6.674;2023-04-25T14:29:34;0.73;;;0.35;;
33104;SDS011;19476;51.448;6.674;2023-04-25T14:32:00;1.98;;;0.40;;
33104;SDS011;19476;51.448;6.674;2023-04-25T14:34:25;2.97;;;0.50;;
33104;SDS011;19476;51.448;6.674;2023-04-25T14:36:51;1.00;;;0.32;;
33104;SDS011;19476;51.448;6.674;2023-04-25T14:39:17;3.15;;;0.60;;
33104;SDS011;19476;51.448;6.674;2023-04-25T14:41:43;1.85;;;0.55;;
33104;SDS011;19476;51.448;6.674;2023-04-25T14:44:12;3.40;;;0.75;;
33104;SDS011;19476;51.448;6.674;2023-04-25T14:46:38;2.90;;;0.80;;
33104;SDS011;19476;51.448;6.674;2023-04-25T14:49:04;2.50;;;0.50;;
33104;SDS011;19476;51.448;6.674;2023-04-25T14:51:30;1.63;;;0.57;;
33104;SDS011;19476;51.448;6.674;2023-04-25T14:53:56;1.75;;;0.50;;
33104;SDS011;19476;51.448;6.674;2023-04-25T14:56:22;3.28;;;0.60;;